Terminal Aerodrome Forecast
Issued by NWS

Home | Current Version | Previous Version | Text Only | Print | Product List | Glossary On
Versions: 1 2 3 4 5 6 7 8 9 10 11 12 13 14
000
FTUS42 KMLB 011100
TAFTIX
TAF
KTIX 011127Z 0112/0212 VRB03KT P6SM FEW020 SCT060
     FM011400 35005KT P6SM VCSH FEW010 BKN060
     FM011800 07007KT P6SM VCSH SCT030 BKN050
     FM012300 07005KT P6SM FEW025 SCT100 SCT250=

USA.gov is the U.S. government's official web portal to all federal, state and local government web resources and services.